createdAt,value
2022-11-18T00:09:15.135Z,14.52
2022-11-18T00:19:17.032Z,14.49
2022-11-18T00:29:18.903Z,14.47
2022-11-18T00:39:20.974Z,14.44
2022-11-18T00:49:22.894Z,14.44
2022-11-18T00:59:24.253Z,14.45
2022-11-18T01:09:25.798Z,14.42
2022-11-18T01:19:27.287Z,14.42
2022-11-18T01:29:28.678Z,14.39
2022-11-18T01:39:31.304Z,14.35
2022-11-18T01:49:32.679Z,14.32
2022-11-18T01:59:36.050Z,14.29
2022-11-18T02:09:37.540Z,14.27
2022-11-18T02:19:47.820Z,14.26
2022-11-18T02:30:08.477Z,14.22
2022-11-18T02:40:19.175Z,14.20
2022-11-18T02:50:22.756Z,14.16
2022-11-18T03:00:24.218Z,14.11
2022-11-18T03:10:25.726Z,14.10
2022-11-18T03:20:51.087Z,14.06
2022-11-18T03:31:03.599Z,14.06
2022-11-18T03:41:06.416Z,14.03
2022-11-18T03:51:12.175Z,14.01
2022-11-18T04:01:17.078Z,14.01
2022-11-18T04:11:38.620Z,14.01
2022-11-18T04:21:40.070Z,14.02
2022-11-18T04:31:41.531Z,14.00
2022-11-18T04:41:57.188Z,14.00
2022-11-18T04:51:58.711Z,14.00
2022-11-18T05:02:00.907Z,14.00
2022-11-18T05:12:20.877Z,14.00
2022-11-18T05:22:22.281Z,14.02
2022-11-18T05:32:23.693Z,14.18
2022-11-18T05:42:43.627Z,14.29
2022-11-18T05:52:45.002Z,14.44
2022-11-18T06:02:46.814Z,14.59
2022-11-18T06:12:50.785Z,14.74
2022-11-18T06:22:54.255Z,14.88
2022-11-18T06:32:55.654Z,14.96
2022-11-18T06:43:16.055Z,14.94
2022-11-18T06:53:17.470Z,15.02
2022-11-18T07:03:18.872Z,15.09
2022-11-18T07:13:20.341Z,15.15
2022-11-18T07:23:21.759Z,15.21
2022-11-18T07:33:23.152Z,15.29
2022-11-18T07:43:24.534Z,15.36
2022-11-18T07:53:25.931Z,15.45
2022-11-18T08:03:27.888Z,15.43
2022-11-18T08:13:29.528Z,15.52
2022-11-18T08:23:33.986Z,15.59
2022-11-18T08:33:37.909Z,15.59
2022-11-18T08:43:39.357Z,15.76
2022-11-18T08:53:40.837Z,15.82
2022-11-18T09:03:42.359Z,15.88
2022-11-18T09:14:20.476Z,15.99
2022-11-18T09:24:05.781Z,16.25
2022-11-18T09:34:10.090Z,16.81
2022-11-18T09:44:14.444Z,17.07
2022-11-18T09:54:23.162Z,17.02
2022-11-18T10:04:24.688Z,16.97
2022-11-18T10:15:10.694Z,16.95
2022-11-18T10:25:16.353Z,16.85
2022-11-18T10:35:28.255Z,16.78
2022-11-18T10:45:30.519Z,16.80
2022-11-18T10:55:32.070Z,16.67
2022-11-18T11:05:33.439Z,16.81
2022-11-18T11:15:47.900Z,16.76
2022-11-18T11:36:31.591Z,16.71
2022-11-18T11:47:08.241Z,16.70
2022-11-18T11:57:15.824Z,16.58
2022-11-18T12:07:27.703Z,16.47
2022-11-18T12:17:34.064Z,16.38
2022-11-18T12:27:39.953Z,16.38
2022-11-18T12:37:53.427Z,16.40
2022-11-18T12:47:54.659Z,16.39
2022-11-18T12:57:56.038Z,16.47
2022-11-18T13:08:13.178Z,16.50
2022-11-18T13:18:17.181Z,16.50
2022-11-18T13:28:25.535Z,16.24
2022-11-18T13:38:28.652Z,16.33
2022-11-18T13:48:30.284Z,16.32
2022-11-18T14:09:27.317Z,16.20
2022-11-18T14:19:30.825Z,16.13
2022-11-18T14:29:32.209Z,16.12
2022-11-18T14:39:34.294Z,16.14
2022-11-18T14:49:35.835Z,16.12
2022-11-18T14:59:37.236Z,16.03
2022-11-18T15:09:38.613Z,15.98
2022-11-18T15:19:41.421Z,15.89
2022-11-18T15:29:42.816Z,15.78
2022-11-18T15:39:44.314Z,15.65
2022-11-18T15:49:45.814Z,15.51
2022-11-18T15:59:47.611Z,15.38
2022-11-18T16:10:07.732Z,15.25
2022-11-18T16:20:09.510Z,15.10
2022-11-18T16:30:33.640Z,15.10
2022-11-18T16:40:35.094Z,14.92
2022-11-18T16:50:36.558Z,14.80
2022-11-18T17:01:09.235Z,14.68
2022-11-18T17:11:07.032Z,14.53
2022-11-18T17:21:11.005Z,14.45
2022-11-18T17:31:22.157Z,14.40
2022-11-18T17:41:43.807Z,14.36
2022-11-18T17:51:48.075Z,14.32
2022-11-18T18:01:53.014Z,14.29
2022-11-18T18:11:59.947Z,14.29
2022-11-18T18:22:01.355Z,14.25
2022-11-18T18:32:02.920Z,14.18
2022-11-18T18:42:05.414Z,14.13
2022-11-18T18:52:06.873Z,14.11
2022-11-18T19:02:13.548Z,14.08
2022-11-18T19:12:33.587Z,13.97
2022-11-18T19:22:35.614Z,14.03
2022-11-18T19:32:40.211Z,13.90
2022-11-18T19:42:42.499Z,14.03
2022-11-18T19:52:49.967Z,14.10
2022-11-18T20:02:51.337Z,14.09
2022-11-18T20:12:52.818Z,14.05
2022-11-18T20:22:54.322Z,13.99
2022-11-18T20:32:55.777Z,13.96
2022-11-18T20:43:12.432Z,13.88
2022-11-18T20:53:14.996Z,13.90
2022-11-18T21:03:16.469Z,13.89
2022-11-18T21:13:36.420Z,13.85
2022-11-18T21:23:37.909Z,13.81
2022-11-18T21:33:39.372Z,13.82
2022-11-18T21:44:04.561Z,13.78
2022-11-18T21:54:03.265Z,13.75
2022-11-18T22:04:05.171Z,13.76
2022-11-18T22:14:07.837Z,13.75
2022-11-18T22:24:09.526Z,13.70
2022-11-18T22:34:11.014Z,13.65
2022-11-18T22:44:13.856Z,13.62
2022-11-18T23:04:36.881Z,13.57
2022-11-18T23:14:38.262Z,13.57
2022-11-18T23:24:39.902Z,13.49
2022-11-18T23:34:41.278Z,13.54
2022-11-18T23:44:45.515Z,13.53
2022-11-18T23:54:49.808Z,13.49
